createdAt,value
2023-05-24T00:01:31.006Z,4.93
2023-05-24T00:04:01.189Z,4.15
2023-05-24T00:06:35.015Z,4.03
2023-05-24T00:09:09.506Z,4.35
2023-05-24T00:11:38.956Z,4.30
2023-05-24T00:14:08.324Z,4.05
2023-05-24T00:16:37.094Z,4.03
2023-05-24T00:19:05.525Z,4.55
2023-05-24T00:21:36.895Z,4.32
2023-05-24T00:24:06.608Z,4.30
2023-05-24T00:26:34.864Z,4.07
2023-05-24T00:29:03.209Z,4.47
2023-05-24T00:31:31.717Z,4.13
2023-05-24T00:34:00.405Z,3.80
2023-05-24T00:36:28.992Z,4.20
2023-05-24T00:38:58.805Z,3.88
2023-05-24T00:41:28.232Z,4.18
2023-05-24T00:44:05.386Z,4.30
2023-05-24T00:46:36.413Z,3.72
2023-05-24T00:49:06.129Z,4.22
2023-05-24T00:51:34.916Z,4.20
2023-05-24T00:54:04.813Z,4.53
2023-05-24T00:56:32.958Z,3.80
2023-05-24T00:59:02.694Z,4.00
2023-05-24T01:01:31.950Z,3.92
2023-05-24T01:04:07.540Z,3.72
2023-05-24T01:06:53.673Z,4.13
2023-05-24T01:09:45.674Z,3.97
2023-05-24T01:12:26.187Z,4.28
2023-05-24T01:15:06.351Z,4.00
2023-05-24T01:17:48.537Z,5.10
2023-05-24T01:20:30.675Z,3.85
2023-05-24T01:23:17.794Z,3.95
2023-05-24T01:26:04.947Z,4.32
2023-05-24T01:28:35.842Z,4.32
2023-05-24T01:31:18.040Z,4.03
2023-05-24T01:33:55.342Z,3.75
2023-05-24T01:36:23.799Z,3.88
2023-05-24T01:38:52.917Z,4.45
2023-05-24T01:41:30.542Z,4.20
2023-05-24T01:44:06.392Z,4.63
2023-05-24T01:46:38.559Z,4.28
2023-05-24T01:49:17.254Z,3.92
2023-05-24T01:51:50.995Z,4.28
2023-05-24T01:54:29.553Z,3.78
2023-05-24T01:56:59.857Z,3.95
2023-05-24T01:59:33.535Z,4.18
2023-05-24T02:02:02.471Z,3.90
2023-05-24T02:04:31.381Z,3.67
2023-05-24T02:06:59.740Z,3.58
2023-05-24T02:09:35.212Z,3.75
2023-05-24T02:12:03.871Z,3.90
2023-05-24T02:14:33.362Z,3.58
2023-05-24T02:17:02.945Z,3.55
2023-05-24T02:19:32.218Z,3.47
2023-05-24T02:22:00.343Z,3.65
2023-05-24T02:24:28.504Z,3.95
2023-05-24T02:26:56.688Z,3.72
2023-05-24T02:29:25.825Z,3.92
2023-05-24T02:31:56.801Z,3.58
2023-05-24T02:34:25.509Z,3.45
2023-05-24T02:36:55.919Z,3.70
2023-05-24T02:39:30.478Z,3.20
2023-05-24T02:42:00.698Z,3.17
2023-05-24T02:44:38.927Z,3.22
2023-05-24T02:47:09.124Z,3.28
2023-05-24T02:49:37.310Z,3.40
2023-05-24T02:52:05.951Z,3.60
2023-05-24T02:54:34.217Z,3.78
2023-05-24T02:57:03.697Z,3.25
2023-05-24T02:59:33.547Z,3.53
2023-05-24T03:02:14.895Z,3.78
2023-05-24T03:04:43.276Z,3.53
2023-05-24T03:07:11.909Z,4.40
2023-05-24T03:09:46.379Z,3.47
2023-05-24T03:12:14.692Z,3.63
2023-05-24T03:14:42.936Z,3.40
2023-05-24T03:17:11.293Z,4.10
2023-05-24T03:19:53.175Z,3.47
2023-05-24T03:22:21.506Z,3.70
2023-05-24T03:24:50.998Z,3.58
2023-05-24T03:27:19.227Z,3.63
2023-05-24T03:29:54.413Z,3.92
2023-05-24T03:32:23.642Z,3.88
2023-05-24T03:34:53.184Z,3.95
2023-05-24T03:37:21.398Z,3.53
2023-05-24T03:39:49.743Z,3.83
2023-05-24T03:42:18.258Z,3.83
2023-05-24T03:44:46.550Z,3.42
2023-05-24T03:47:14.726Z,3.75
2023-05-24T03:49:43.191Z,3.58
2023-05-24T03:52:13.182Z,4.20
2023-05-24T03:54:49.308Z,3.67
2023-05-24T03:57:19.095Z,3.80
2023-05-24T03:59:49.193Z,3.78
2023-05-24T04:02:17.552Z,4.03
2023-05-24T04:04:46.477Z,4.45
2023-05-24T04:07:20.090Z,4.25
2023-05-24T04:09:48.224Z,3.75
2023-05-24T04:12:16.439Z,4.68
2023-05-24T04:14:44.600Z,4.82
2023-05-24T04:17:12.976Z,4.50
2023-05-24T04:19:41.265Z,4.97
2023-05-24T04:22:09.493Z,5.40
2023-05-24T04:24:40.047Z,5.88
2023-05-24T04:27:09.907Z,5.20
2023-05-24T04:29:38.398Z,5.43
2023-05-24T04:32:07.127Z,5.65
2023-05-24T04:34:37.608Z,5.95
2023-05-24T04:37:06.293Z,5.70
2023-05-24T04:39:34.493Z,5.55
2023-05-24T04:42:04.564Z,5.50
2023-05-24T04:44:32.703Z,5.80
2023-05-24T04:47:02.820Z,5.45
2023-05-24T04:49:31.375Z,5.72
2023-05-24T04:52:00.839Z,5.45
2023-05-24T04:54:29.071Z,6.68
2023-05-24T04:57:03.737Z,5.43
2023-05-24T04:59:41.126Z,6.35
2023-05-24T05:02:16.538Z,5.93
2023-05-24T05:04:44.747Z,5.95
2023-05-24T05:07:17.110Z,6.43
2023-05-24T05:09:45.703Z,7.28
2023-05-24T05:12:23.471Z,7.32
2023-05-24T05:14:53.219Z,5.88
2023-05-24T05:17:21.791Z,5.80
2023-05-24T05:19:49.963Z,6.50
2023-05-24T05:22:18.136Z,7.03
2023-05-24T05:24:46.236Z,6.75
2023-05-24T05:27:14.307Z,6.57
2023-05-24T05:29:44.003Z,6.70
2023-05-24T05:32:12.241Z,5.70
2023-05-24T05:34:41.406Z,6.60
2023-05-24T05:37:09.559Z,6.53
2023-05-24T05:39:37.857Z,5.97
2023-05-24T05:42:06.621Z,6.97
2023-05-24T05:44:34.761Z,6.35
2023-05-24T05:47:07.383Z,6.18
2023-05-24T05:49:36.628Z,6.85
2023-05-24T05:52:05.797Z,5.75
2023-05-24T05:54:34.331Z,5.90
2023-05-24T05:57:02.510Z,6.25
2023-05-24T05:59:30.864Z,6.25
2023-05-24T06:01:58.993Z,5.85
2023-05-24T06:04:28.779Z,5.65
2023-05-24T06:06:57.115Z,6.13
2023-05-24T06:09:25.227Z,6.30
2023-05-24T06:11:53.411Z,6.22
2023-05-24T06:14:22.703Z,5.88
2023-05-24T06:16:56.290Z,6.28
2023-05-24T06:19:28.469Z,6.60
2023-05-24T06:21:58.707Z,6.30
2023-05-24T06:24:45.024Z,6.07
2023-05-24T06:27:13.784Z,5.55
2023-05-24T06:29:42.040Z,5.68
2023-05-24T06:32:10.195Z,5.80
2023-05-24T06:34:39.972Z,5.63
2023-05-24T06:37:10.453Z,5.07
2023-05-24T06:39:38.734Z,5.72
2023-05-24T06:42:07.308Z,5.05
2023-05-24T06:44:35.623Z,5.97
2023-05-24T06:47:04.203Z,5.37
2023-05-24T06:49:32.404Z,6.13
2023-05-24T06:52:02.062Z,5.38
2023-05-24T06:54:30.183Z,5.72
2023-05-24T06:56:59.076Z,6.13
2023-05-24T06:59:27.325Z,6.75
2023-05-24T07:01:58.945Z,6.68
2023-05-24T07:04:29.289Z,6.50
2023-05-24T07:06:57.897Z,5.78
2023-05-24T07:09:29.543Z,6.05
2023-05-24T07:11:57.788Z,5.47
2023-05-24T07:14:27.300Z,4.93
2023-05-24T07:17:06.605Z,5.18
2023-05-24T07:19:36.054Z,5.50
2023-05-24T07:22:04.260Z,4.55
2023-05-24T07:24:33.764Z,4.72
2023-05-24T07:27:02.353Z,4.35
2023-05-24T07:29:30.433Z,4.65
2023-05-24T07:31:59.013Z,4.80
2023-05-24T07:34:30.352Z,4.50
2023-05-24T07:37:00.656Z,4.38
2023-05-24T07:39:29.197Z,4.47
2023-05-24T07:41:58.909Z,4.47
2023-05-24T07:44:27.065Z,4.43
2023-05-24T07:46:55.991Z,4.75
2023-05-24T07:49:24.279Z,4.03
2023-05-24T07:51:53.028Z,4.05
2023-05-24T07:54:21.551Z,4.25
2023-05-24T07:56:50.172Z,3.70
2023-05-24T07:59:19.809Z,3.72
2023-05-24T08:01:47.989Z,3.63
2023-05-24T08:04:16.273Z,3.45
2023-05-24T08:06:46.766Z,3.70
2023-05-24T08:09:15.281Z,4.30
2023-05-24T08:11:43.412Z,4.80
2023-05-24T08:14:11.789Z,4.07
2023-05-24T08:16:41.305Z,3.80
2023-05-24T08:19:09.523Z,4.30
2023-05-24T08:21:38.401Z,4.47
2023-05-24T08:24:09.272Z,4.47
2023-05-24T08:26:38.169Z,4.10
2023-05-24T08:29:06.306Z,3.90
2023-05-24T08:31:34.653Z,4.22
2023-05-24T08:34:05.134Z,4.55
2023-05-24T08:36:33.221Z,4.00
2023-05-24T08:39:01.333Z,4.03
2023-05-24T08:41:29.969Z,3.60
2023-05-24T08:44:01.834Z,4.25
2023-05-24T08:46:30.632Z,3.25
2023-05-24T08:48:59.972Z,4.15
2023-05-24T08:51:30.490Z,3.83
2023-05-24T08:54:00.420Z,4.53
2023-05-24T08:56:29.554Z,3.33
2023-05-24T08:58:58.101Z,3.30
2023-05-24T09:01:30.484Z,3.88
2023-05-24T09:04:01.826Z,3.58
2023-05-24T09:06:31.370Z,3.80
2023-05-24T09:09:01.786Z,3.80
2023-05-24T09:11:30.421Z,3.88
2023-05-24T09:13:59.506Z,4.00
2023-05-24T09:16:27.961Z,3.72
2023-05-24T09:18:57.205Z,4.10
2023-05-24T09:21:26.194Z,4.28
2023-05-24T09:23:55.873Z,3.67
2023-05-24T09:26:24.921Z,3.78
2023-05-24T09:28:57.485Z,3.75
2023-05-24T09:31:34.583Z,3.90
2023-05-24T09:34:02.779Z,4.18
2023-05-24T09:36:31.149Z,4.13
2023-05-24T09:39:10.723Z,4.50
2023-05-24T09:41:44.471Z,3.78
2023-05-24T09:44:15.568Z,3.95
2023-05-24T09:46:43.684Z,4.20
2023-05-24T09:49:22.652Z,5.35
2023-05-24T09:51:50.914Z,4.32
2023-05-24T09:54:21.593Z,3.92
2023-05-24T09:56:49.996Z,3.85
2023-05-24T09:59:18.278Z,4.18
2023-05-24T10:01:46.932Z,5.13
2023-05-24T10:04:15.340Z,4.10
2023-05-24T10:06:45.875Z,4.25
2023-05-24T10:09:14.534Z,4.07
2023-05-24T10:11:44.781Z,4.90
2023-05-24T10:14:13.427Z,4.38
2023-05-24T10:16:41.580Z,4.40
2023-05-24T10:19:09.776Z,4.68
2023-05-24T10:21:42.733Z,4.57
2023-05-24T10:24:12.451Z,5.57
2023-05-24T10:26:42.631Z,5.22
2023-05-24T10:29:22.808Z,5.13
2023-05-24T10:31:54.339Z,5.30
2023-05-24T10:34:22.944Z,5.13
2023-05-24T10:36:51.564Z,5.00
2023-05-24T10:39:23.891Z,4.72
2023-05-24T10:41:52.612Z,5.22
2023-05-24T10:44:59.916Z,5.35
2023-05-24T10:47:29.596Z,5.15
2023-05-24T10:49:59.938Z,5.22
2023-05-24T10:52:44.883Z,5.15
2023-05-24T10:55:27.791Z,5.15
2023-05-24T10:58:11.225Z,4.90
2023-05-24T11:00:46.260Z,5.60
2023-05-24T11:03:23.961Z,5.82
2023-05-24T11:06:01.923Z,4.85
2023-05-24T11:08:33.444Z,4.70
2023-05-24T11:11:31.192Z,5.13
2023-05-24T11:14:02.847Z,4.55
2023-05-24T11:16:40.362Z,5.45
2023-05-24T11:19:19.271Z,4.78
2023-05-24T11:21:48.197Z,5.35
2023-05-24T11:24:17.935Z,5.10
2023-05-24T11:26:46.643Z,5.38
2023-05-24T11:29:17.923Z,5.15
2023-05-24T11:32:05.583Z,5.13
2023-05-24T11:34:35.392Z,4.70
2023-05-24T11:37:06.339Z,4.97
2023-05-24T11:39:35.881Z,5.18
2023-05-24T11:42:07.102Z,5.30
2023-05-24T11:44:38.152Z,5.25
2023-05-24T11:47:08.541Z,4.57
2023-05-24T11:49:51.369Z,5.32
2023-05-24T11:52:19.526Z,4.82
2023-05-24T11:54:47.628Z,4.88
2023-05-24T11:57:16.471Z,5.03
2023-05-24T11:59:44.579Z,4.90
2023-05-24T12:02:12.722Z,5.13
2023-05-24T12:04:41.240Z,5.15
2023-05-24T12:07:14.277Z,6.20
2023-05-24T12:09:42.547Z,5.28
2023-05-24T12:12:11.148Z,5.25
2023-05-24T12:14:40.831Z,5.43
2023-05-24T12:17:17.151Z,5.18
2023-05-24T12:19:45.439Z,5.05
2023-05-24T12:22:15.046Z,5.65
2023-05-24T12:24:43.837Z,5.07
2023-05-24T12:27:28.382Z,4.57
2023-05-24T12:29:56.534Z,5.25
2023-05-24T12:32:24.897Z,4.88
2023-05-24T12:34:54.982Z,4.88
2023-05-24T12:37:24.650Z,5.00
2023-05-24T12:40:05.310Z,5.32
2023-05-24T12:42:33.909Z,5.93
2023-05-24T12:45:02.248Z,6.40
2023-05-24T12:47:30.681Z,6.43
2023-05-24T12:49:58.878Z,6.45
2023-05-24T12:52:28.531Z,5.40
2023-05-24T12:54:56.657Z,6.72
2023-05-24T12:57:24.767Z,5.93
2023-05-24T12:59:52.840Z,6.30
2023-05-24T13:02:21.107Z,6.07
2023-05-24T13:04:49.366Z,5.57
2023-05-24T13:07:17.629Z,5.68
2023-05-24T13:09:47.165Z,5.35
2023-05-24T13:12:15.260Z,4.55
2023-05-24T13:14:44.901Z,4.88
2023-05-24T13:17:13.166Z,5.03
2023-05-24T13:19:42.310Z,5.53
2023-05-24T13:22:10.712Z,4.60
2023-05-24T13:24:38.845Z,5.55
2023-05-24T13:27:08.828Z,4.88
2023-05-24T13:29:48.859Z,4.85
2023-05-24T13:32:25.164Z,5.00
2023-05-24T13:35:08.371Z,5.35
2023-05-24T13:37:36.911Z,5.85
2023-05-24T13:40:06.202Z,5.20
2023-05-24T13:42:35.878Z,5.03
2023-05-24T13:45:08.082Z,4.70
2023-05-24T13:47:40.291Z,4.97
2023-05-24T13:50:10.150Z,5.63
2023-05-24T13:52:56.166Z,5.50
2023-05-24T13:55:24.354Z,4.88
2023-05-24T13:58:00.190Z,5.85
2023-05-24T14:00:28.666Z,5.57
2023-05-24T14:02:56.820Z,5.18
2023-05-24T14:05:28.148Z,5.32
2023-05-24T14:07:57.868Z,5.05
2023-05-24T14:10:30.993Z,6.00
2023-05-24T14:13:20.714Z,5.32
2023-05-24T14:15:49.829Z,4.90
2023-05-24T14:18:18.156Z,5.65
2023-05-24T14:20:46.351Z,6.18
2023-05-24T14:23:16.344Z,5.50
2023-05-24T14:25:46.942Z,5.32
2023-05-24T14:28:16.968Z,4.88
2023-05-24T14:30:45.260Z,5.43
2023-05-24T14:33:13.645Z,5.65
2023-05-24T14:35:42.244Z,5.22
2023-05-24T14:38:13.269Z,4.72
2023-05-24T14:40:42.303Z,5.30
2023-05-24T14:43:11.279Z,5.30
2023-05-24T14:45:42.981Z,5.20
2023-05-24T14:48:12.845Z,5.68
2023-05-24T14:50:42.305Z,6.15
2023-05-24T14:53:12.363Z,5.30
2023-05-24T14:55:42.744Z,5.45
2023-05-24T14:58:12.329Z,5.30
2023-05-24T15:00:43.083Z,4.95
2023-05-24T15:03:14.719Z,4.90
2023-05-24T15:05:51.324Z,4.75
2023-05-24T15:08:19.537Z,5.35
2023-05-24T15:10:47.953Z,4.55
2023-05-24T15:13:16.115Z,4.88
2023-05-24T15:15:46.066Z,4.30
2023-05-24T15:18:14.343Z,4.60
2023-05-24T15:20:42.894Z,4.50
2023-05-24T15:23:11.492Z,4.40
2023-05-24T15:25:40.959Z,4.40
2023-05-24T15:28:10.708Z,5.25
2023-05-24T15:30:38.900Z,4.40
2023-05-24T15:33:08.531Z,4.03
2023-05-24T15:35:38.835Z,4.88
2023-05-24T15:38:07.182Z,4.53
2023-05-24T15:40:35.594Z,4.97
2023-05-24T15:43:04.020Z,4.25
2023-05-24T15:45:32.183Z,4.70
2023-05-24T15:48:00.519Z,4.93
2023-05-24T15:53:12.237Z,4.18
2023-05-24T15:55:40.370Z,4.80
2023-05-24T15:58:08.629Z,4.65
2023-05-24T16:00:36.841Z,4.78
2023-05-24T16:03:06.595Z,5.00
2023-05-24T16:05:37.046Z,5.05
2023-05-24T16:08:05.529Z,4.53
2023-05-24T16:10:33.703Z,4.80
2023-05-24T16:13:01.854Z,4.97
2023-05-24T16:15:31.198Z,4.88
2023-05-24T16:17:59.406Z,4.38
2023-05-24T16:20:27.697Z,5.10
2023-05-24T16:22:58.053Z,4.47
2023-05-24T16:25:26.270Z,4.57
2023-05-24T16:27:56.488Z,4.60
2023-05-24T16:30:25.626Z,4.70
2023-05-24T16:32:54.054Z,4.88
2023-05-24T16:35:22.344Z,4.88
2023-05-24T16:37:51.986Z,4.85
2023-05-24T16:40:21.636Z,4.10
2023-05-24T16:42:51.223Z,4.50
2023-05-24T16:45:20.943Z,4.28
2023-05-24T16:47:51.274Z,4.88
2023-05-24T16:50:20.774Z,4.50
2023-05-24T16:52:49.995Z,4.15
2023-05-24T16:55:19.313Z,4.03
2023-05-24T16:57:48.840Z,4.03
2023-05-24T17:00:19.846Z,4.00
2023-05-24T17:02:50.250Z,4.30
2023-05-24T17:05:20.640Z,3.90
2023-05-24T17:07:48.765Z,4.05
2023-05-24T17:10:16.875Z,4.20
2023-05-24T17:12:47.439Z,4.15
2023-05-24T17:15:17.326Z,3.55
2023-05-24T17:17:45.743Z,4.20
2023-05-24T17:20:15.205Z,3.95
2023-05-24T17:22:44.163Z,4.25
2023-05-24T17:25:12.316Z,4.25
2023-05-24T17:27:40.425Z,4.13
2023-05-24T17:30:09.971Z,4.07
2023-05-24T17:32:48.062Z,4.70
2023-05-24T17:35:19.443Z,4.88
2023-05-24T17:37:53.420Z,3.97
2023-05-24T17:40:21.727Z,4.07
2023-05-24T17:42:49.870Z,4.45
2023-05-24T17:45:18.132Z,4.32
2023-05-24T17:47:48.022Z,4.72
2023-05-24T17:50:16.238Z,5.05
2023-05-24T17:53:01.413Z,5.43
2023-05-24T17:55:29.594Z,5.13
2023-05-24T17:57:57.834Z,5.93
2023-05-24T18:00:27.834Z,4.47
2023-05-24T18:03:23.992Z,3.85
2023-05-24T18:06:04.742Z,4.65
2023-05-24T18:08:38.550Z,5.03
2023-05-24T18:11:09.580Z,4.35
2023-05-24T18:13:38.617Z,4.13
2023-05-24T18:16:07.151Z,4.68
2023-05-24T18:18:38.822Z,4.60
2023-05-24T18:21:07.289Z,4.53
2023-05-24T18:23:37.790Z,4.32
2023-05-24T18:26:08.367Z,4.95
2023-05-24T18:28:37.581Z,4.47
2023-05-24T18:31:08.372Z,4.65
2023-05-24T18:33:38.180Z,4.40
2023-05-24T18:36:06.794Z,4.50
2023-05-24T18:38:35.543Z,4.60
2023-05-24T18:41:09.704Z,3.75
2023-05-24T18:43:38.166Z,4.55
2023-05-24T18:46:06.383Z,4.20
2023-05-24T18:48:34.577Z,4.45
2023-05-24T18:51:04.472Z,4.50
2023-05-24T18:53:37.523Z,4.47
2023-05-24T18:56:12.752Z,4.40
2023-05-24T18:58:41.424Z,4.35
2023-05-24T19:01:10.782Z,4.70
2023-05-24T19:03:41.696Z,5.22
2023-05-24T19:06:12.872Z,4.75
2023-05-24T19:08:43.237Z,4.55
2023-05-24T19:11:11.804Z,5.15
2023-05-24T19:13:41.068Z,4.85
2023-05-24T19:16:24.505Z,4.90
2023-05-24T19:19:08.854Z,4.28
2023-05-24T19:21:56.699Z,6.75
2023-05-24T19:24:26.003Z,6.00
2023-05-24T19:27:02.319Z,8.70
2023-05-24T19:29:32.678Z,6.35
2023-05-24T19:32:00.842Z,5.68
2023-05-24T19:34:31.911Z,6.50
2023-05-24T19:37:01.570Z,6.00
2023-05-24T19:39:30.875Z,7.03
2023-05-24T19:42:01.195Z,5.72
2023-05-24T19:44:31.057Z,5.63
2023-05-24T19:46:59.221Z,6.13
2023-05-24T19:49:27.713Z,5.78
2023-05-24T19:51:55.909Z,5.75
2023-05-24T19:54:26.471Z,6.05
2023-05-24T19:57:05.941Z,6.78
2023-05-24T19:59:35.460Z,5.80
2023-05-24T20:02:07.491Z,5.82
2023-05-24T20:04:42.035Z,6.25
2023-05-24T20:07:10.777Z,6.00
2023-05-24T20:09:41.810Z,6.03
2023-05-24T20:12:12.349Z,6.45
2023-05-24T20:14:44.647Z,6.55
2023-05-24T20:17:17.015Z,5.63
2023-05-24T20:19:52.687Z,6.50
2023-05-24T20:22:39.928Z,6.65
2023-05-24T20:25:11.808Z,7.05
2023-05-24T20:27:50.420Z,6.72
2023-05-24T20:30:18.972Z,6.53
2023-05-24T20:32:48.194Z,6.38
2023-05-24T20:35:16.815Z,6.05
2023-05-24T20:37:44.997Z,6.05
2023-05-24T20:40:27.015Z,6.50
2023-05-24T20:42:55.436Z,5.70
2023-05-24T20:45:31.124Z,5.78
2023-05-24T20:47:59.552Z,5.90
2023-05-24T20:50:28.361Z,6.03
2023-05-24T20:53:02.645Z,6.05
2023-05-24T20:55:38.542Z,6.35
2023-05-24T20:58:08.996Z,5.90
2023-05-24T21:00:55.220Z,5.53
2023-05-24T21:03:23.501Z,5.93
2023-05-24T21:05:51.663Z,5.70
2023-05-24T21:08:24.270Z,6.30
2023-05-24T21:10:55.719Z,6.05
2023-05-24T21:13:25.541Z,6.15
2023-05-24T21:16:05.274Z,5.18
2023-05-24T21:18:33.606Z,4.93
2023-05-24T21:21:16.927Z,4.50
2023-05-24T21:23:52.332Z,4.80
2023-05-24T21:26:22.776Z,4.30
2023-05-24T21:29:02.090Z,4.15
2023-05-24T21:31:31.991Z,4.13
2023-05-24T21:34:00.222Z,3.78
2023-05-24T21:36:28.508Z,4.22
2023-05-24T21:39:00.608Z,4.85
2023-05-24T21:41:30.268Z,3.88
2023-05-24T21:44:00.433Z,3.63
2023-05-24T21:46:46.983Z,3.78
2023-05-24T21:49:21.456Z,4.38
2023-05-24T21:51:49.646Z,4.10
2023-05-24T21:54:29.255Z,4.00
2023-05-24T21:56:58.877Z,4.35
2023-05-24T21:59:33.035Z,4.32
2023-05-24T22:02:01.372Z,3.85
2023-05-24T22:04:29.674Z,3.65
2023-05-24T22:07:03.678Z,3.75
2023-05-24T22:09:31.874Z,4.15
2023-05-24T22:12:04.330Z,3.80
2023-05-24T22:14:33.531Z,3.67
2023-05-24T22:17:01.932Z,3.17
2023-05-24T22:19:39.624Z,4.25
2023-05-24T22:22:19.745Z,3.95
2023-05-24T22:24:48.446Z,3.90
2023-05-24T22:27:18.078Z,3.75
2023-05-24T22:29:53.177Z,3.70
2023-05-24T22:32:23.546Z,3.80
2023-05-24T22:34:51.878Z,3.53
2023-05-24T22:37:20.586Z,3.33
2023-05-24T22:39:49.068Z,3.70
2023-05-24T22:42:28.341Z,4.25
2023-05-24T22:45:01.659Z,3.25
2023-05-24T22:47:42.953Z,3.67
2023-05-24T22:50:17.328Z,3.33
2023-05-24T22:52:46.648Z,3.15
2023-05-24T22:55:38.354Z,3.47
2023-05-24T22:58:10.851Z,3.47
2023-05-24T23:00:49.748Z,3.60
2023-05-24T23:03:17.941Z,3.10
2023-05-24T23:05:46.105Z,2.70
2023-05-24T23:08:14.386Z,3.60
2023-05-24T23:10:59.590Z,2.97
2023-05-24T23:13:52.840Z,3.00
2023-05-24T23:16:20.975Z,3.13
2023-05-24T23:18:49.112Z,3.08
2023-05-24T23:21:17.423Z,2.70
2023-05-24T23:23:46.237Z,2.83
2023-05-24T23:26:18.563Z,2.85
2023-05-24T23:28:48.876Z,2.75
2023-05-24T23:31:18.581Z,2.78
2023-05-24T23:33:48.836Z,3.05
2023-05-24T23:36:16.950Z,2.83
2023-05-24T23:38:45.134Z,2.92
2023-05-24T23:41:13.331Z,2.88
2023-05-24T23:43:41.465Z,3.05
2023-05-24T23:46:18.245Z,2.67
2023-05-24T23:48:53.295Z,2.85
2023-05-24T23:51:21.764Z,2.70
2023-05-24T23:53:52.054Z,2.95
2023-05-24T23:56:20.171Z,3.15
2023-05-24T23:58:50.361Z,3.17
